Terminal Aerodrome Forecast
Issued by NWS Newport/Morehead City, NC

Home | Current Version | Previous Version | Text Only | Print | Product List | Glossary Off
Versions: 1 2 3 4 5 6 7 8 9 10 11 12 13 14 15

000
FTUS42 KMHX 261700
TAFEWN
TAF
KEWN 261723Z 2618/2718 04011KT P6SM SCT040
     FM270000 02007KT P6SM FEW020=

USA.gov is the U.S. government's official web portal to all federal, state and local government web resources and services.